Terminal Aerodrome Forecast
Issued by NWS

Home | Current Version | Previous Version | Text Only | Print | Product List | Glossary On
Versions: 1 2 3 4 5 6 7 8 9 10 11 12 13 14 15 16 17 18 19 20
707
FTUS44 KLZK 242334
TAFPBF
TAF
KPBF 242334Z 2500/2524 13006KT P6SM FEW250
     FM250200 VRB04KT P6SM FEW250
      TEMPO 2511/2513 4SM BR
     FM251500 12005KT P6SM SCT050
     FM251900 15009G16KT P6SM VCTS SCT050CB SCT250=

USA.gov is the U.S. government's official web portal to all federal, state and local government web resources and services.